sensor_id;sensor_type;location;lat;lon;timestamp;temperature;humidity
18998;DHT22;9632;51.018;4.284;2023-09-30T00:00:57;15.50;99.90
18998;DHT22;9632;51.018;4.284;2023-09-30T00:03:23;15.50;99.90
18998;DHT22;9632;51.018;4.284;2023-09-30T00:05:49;15.50;99.90
18998;DHT22;9632;51.018;4.284;2023-09-30T00:08:14;15.50;99.90
18998;DHT22;9632;51.018;4.284;2023-09-30T00:10:40;15.50;99.90
18998;DHT22;9632;51.018;4.284;2023-09-30T00:13:06;15.50;99.90
18998;DHT22;9632;51.018;4.284;2023-09-30T00:15:34;15.50;99.90
18998;DHT22;9632;51.018;4.284;2023-09-30T00:18:00;15.50;99.90
18998;DHT22;9632;51.018;4.284;2023-09-30T00:20:27;15.50;99.90
18998;DHT22;9632;51.018;4.284;2023-09-30T00:22:53;15.50;99.90
18998;DHT22;9632;51.018;4.284;2023-09-30T00:25:19;15.50;99.90
18998;DHT22;9632;51.018;4.284;2023-09-30T00:27:46;15.50;99.90
18998;DHT22;9632;51.018;4.284;2023-09-30T00:30:12;15.50;99.90
18998;DHT22;9632;51.018;4.284;2023-09-30T00:32:38;15.50;99.90
18998;DHT22;9632;51.018;4.284;2023-09-30T00:35:05;15.50;99.90
18998;DHT22;9632;51.018;4.284;2023-09-30T00:37:37;15.50;99.90
18998;DHT22;9632;51.018;4.284;2023-09-30T00:40:04;15.50;99.90
18998;DHT22;9632;51.018;4.284;2023-09-30T00:42:30;15.50;99.90
18998;DHT22;9632;51.018;4.284;2023-09-30T00:44:55;15.50;99.90
18998;DHT22;9632;51.018;4.284;2023-09-30T00:47:22;15.50;99.90
18998;DHT22;9632;51.018;4.284;2023-09-30T00:49:51;15.50;99.90
18998;DHT22;9632;51.018;4.284;2023-09-30T00:52:19;15.50;99.90
18998;DHT22;9632;51.018;4.284;2023-09-30T00:54:46;15.50;99.90
18998;DHT22;9632;51.018;4.284;2023-09-30T00:57:13;15.40;99.90
18998;DHT22;9632;51.018;4.284;2023-09-30T00:59:38;15.40;99.90
18998;DHT22;9632;51.018;4.284;2023-09-30T01:02:05;15.40;99.90
18998;DHT22;9632;51.018;4.284;2023-09-30T01:04:32;15.40;99.90
18998;DHT22;9632;51.018;4.284;2023-09-30T01:06:57;15.40;99.90
18998;DHT22;9632;51.018;4.284;2023-09-30T01:09:23;15.40;99.90
18998;DHT22;9632;51.018;4.284;2023-09-30T01:11:50;15.40;99.90
18998;DHT22;9632;51.018;4.284;2023-09-30T01:14:31;15.40;99.90
18998;DHT22;9632;51.018;4.284;2023-09-30T01:16:57;15.40;99.90
18998;DHT22;9632;51.018;4.284;2023-09-30T01:19:24;15.40;99.90
18998;DHT22;9632;51.018;4.284;2023-09-30T01:21:57;15.30;99.90
18998;DHT22;9632;51.018;4.284;2023-09-30T01:24:27;15.30;99.90
18998;DHT22;9632;51.018;4.284;2023-09-30T01:26:53;15.30;99.90
18998;DHT22;9632;51.018;4.284;2023-09-30T01:29:19;15.30;99.90
18998;DHT22;9632;51.018;4.284;2023-09-30T01:31:46;15.30;99.90
18998;DHT22;9632;51.018;4.284;2023-09-30T01:34:15;15.30;99.90
18998;DHT22;9632;51.018;4.284;2023-09-30T01:36:44;15.30;99.90
18998;DHT22;9632;51.018;4.284;2023-09-30T01:39:11;15.20;99.90
18998;DHT22;9632;51.018;4.284;2023-09-30T01:41:37;15.20;99.90
18998;DHT22;9632;51.018;4.284;2023-09-30T01:44:04;15.10;99.90
18998;DHT22;9632;51.018;4.284;2023-09-30T01:46:29;15.20;99.90
18998;DHT22;9632;51.018;4.284;2023-09-30T01:48:55;15.10;99.90
18998;DHT22;9632;51.018;4.284;2023-09-30T01:51:20;15.10;99.90
18998;DHT22;9632;51.018;4.284;2023-09-30T01:53:47;15.10;99.90
18998;DHT22;9632;51.018;4.284;2023-09-30T01:56:13;15.10;99.90
18998;DHT22;9632;51.018;4.284;2023-09-30T01:58:39;15.10;99.90
18998;DHT22;9632;51.018;4.284;2023-09-30T02:01:05;15.10;99.90
18998;DHT22;9632;51.018;4.284;2023-09-30T02:03:30;15.00;99.90
18998;DHT22;9632;51.018;4.284;2023-09-30T02:05:57;15.00;99.90
18998;DHT22;9632;51.018;4.284;2023-09-30T02:08:23;15.00;99.90
18998;DHT22;9632;51.018;4.284;2023-09-30T02:10:49;15.00;99.90
18998;DHT22;9632;51.018;4.284;2023-09-30T02:13:16;15.00;99.90
18998;DHT22;9632;51.018;4.284;2023-09-30T02:15:42;15.00;99.90
18998;DHT22;9632;51.018;4.284;2023-09-30T02:18:08;15.00;99.90
18998;DHT22;9632;51.018;4.284;2023-09-30T02:20:35;15.00;99.90
18998;DHT22;9632;51.018;4.284;2023-09-30T02:23:05;14.90;99.90
18998;DHT22;9632;51.018;4.284;2023-09-30T02:25:31;14.90;99.90
18998;DHT22;9632;51.018;4.284;2023-09-30T02:27:57;14.90;99.90
18998;DHT22;9632;51.018;4.284;2023-09-30T02:30:23;14.90;99.90
18998;DHT22;9632;51.018;4.284;2023-09-30T02:32:49;14.90;99.90
18998;DHT22;9632;51.018;4.284;2023-09-30T02:35:15;15.00;99.90
18998;DHT22;9632;51.018;4.284;2023-09-30T02:37:41;14.90;99.90
18998;DHT22;9632;51.018;4.284;2023-09-30T02:40:07;14.90;99.90
18998;DHT22;9632;51.018;4.284;2023-09-30T02:42:39;14.90;99.90
18998;DHT22;9632;51.018;4.284;2023-09-30T02:45:06;14.90;99.90
18998;DHT22;9632;51.018;4.284;2023-09-30T02:47:34;14.90;99.90
18998;DHT22;9632;51.018;4.284;2023-09-30T02:50:00;14.80;99.90
18998;DHT22;9632;51.018;4.284;2023-09-30T02:52:26;14.80;99.90
18998;DHT22;9632;51.018;4.284;2023-09-30T02:54:52;14.80;99.90
18998;DHT22;9632;51.018;4.284;2023-09-30T02:57:18;14.80;99.90
18998;DHT22;9632;51.018;4.284;2023-09-30T02:59:44;14.80;99.90
18998;DHT22;9632;51.018;4.284;2023-09-30T03:02:11;14.80;99.90
18998;DHT22;9632;51.018;4.284;2023-09-30T03:04:41;14.80;99.90
18998;DHT22;9632;51.018;4.284;2023-09-30T03:07:07;14.90;99.90
18998;DHT22;9632;51.018;4.284;2023-09-30T03:09:34;14.90;99.90
18998;DHT22;9632;51.018;4.284;2023-09-30T03:12:01;14.90;99.90
18998;DHT22;9632;51.018;4.284;2023-09-30T03:14:28;14.90;99.90
18998;DHT22;9632;51.018;4.284;2023-09-30T03:16:56;14.90;99.90
18998;DHT22;9632;51.018;4.284;2023-09-30T03:19:22;14.90;99.90
18998;DHT22;9632;51.018;4.284;2023-09-30T03:21:48;14.90;99.90
18998;DHT22;9632;51.018;4.284;2023-09-30T03:24:14;14.90;99.90
18998;DHT22;9632;51.018;4.284;2023-09-30T03:26:39;14.90;99.90
18998;DHT22;9632;51.018;4.284;2023-09-30T03:29:07;14.90;99.90
18998;DHT22;9632;51.018;4.284;2023-09-30T03:31:34;14.90;99.90
18998;DHT22;9632;51.018;4.284;2023-09-30T03:34:00;14.90;99.90
18998;DHT22;9632;51.018;4.284;2023-09-30T03:36:26;14.90;99.90
18998;DHT22;9632;51.018;4.284;2023-09-30T03:38:54;14.90;99.90
18998;DHT22;9632;51.018;4.284;2023-09-30T03:41:21;14.90;99.90
18998;DHT22;9632;51.018;4.284;2023-09-30T03:43:46;14.90;99.90
18998;DHT22;9632;51.018;4.284;2023-09-30T03:46:14;14.90;99.90
18998;DHT22;9632;51.018;4.284;2023-09-30T03:48:41;14.90;99.90
18998;DHT22;9632;51.018;4.284;2023-09-30T03:51:17;14.90;99.90
18998;DHT22;9632;51.018;4.284;2023-09-30T03:53:46;14.90;99.90
18998;DHT22;9632;51.018;4.284;2023-09-30T03:56:12;14.90;99.90
18998;DHT22;9632;51.018;4.284;2023-09-30T03:58:42;14.90;99.90
18998;DHT22;9632;51.018;4.284;2023-09-30T04:01:11;14.90;99.90
18998;DHT22;9632;51.018;4.284;2023-09-30T04:03:37;14.90;99.90
18998;DHT22;9632;51.018;4.284;2023-09-30T04:06:05;14.80;99.90
18998;DHT22;9632;51.018;4.284;2023-09-30T04:08:32;14.80;99.90
18998;DHT22;9632;51.018;4.284;2023-09-30T04:10:59;14.80;99.90
18998;DHT22;9632;51.018;4.284;2023-09-30T04:13:25;14.70;99.90
18998;DHT22;9632;51.018;4.284;2023-09-30T04:15:51;14.70;99.90
18998;DHT22;9632;51.018;4.284;2023-09-30T04:18:16;14.70;99.90
18998;DHT22;9632;51.018;4.284;2023-09-30T04:20:45;14.70;99.90
18998;DHT22;9632;51.018;4.284;2023-09-30T04:23:12;14.70;99.90
18998;DHT22;9632;51.018;4.284;2023-09-30T04:25:38;14.70;99.90
18998;DHT22;9632;51.018;4.284;2023-09-30T04:28:05;14.70;99.90
18998;DHT22;9632;51.018;4.284;2023-09-30T04:30:31;14.70;99.90
18998;DHT22;9632;51.018;4.284;2023-09-30T04:32:59;14.70;99.90
18998;DHT22;9632;51.018;4.284;2023-09-30T04:35:24;14.60;99.90
18998;DHT22;9632;51.018;4.284;2023-09-30T04:37:51;14.70;99.90
18998;DHT22;9632;51.018;4.284;2023-09-30T04:40:16;14.70;99.90
18998;DHT22;9632;51.018;4.284;2023-09-30T04:42:45;14.70;99.90
18998;DHT22;9632;51.018;4.284;2023-09-30T04:45:12;14.70;99.90
18998;DHT22;9632;51.018;4.284;2023-09-30T04:47:38;14.60;99.90
18998;DHT22;9632;51.018;4.284;2023-09-30T04:50:08;14.60;99.90
18998;DHT22;9632;51.018;4.284;2023-09-30T04:52:36;14.50;99.90
18998;DHT22;9632;51.018;4.284;2023-09-30T04:55:02;14.50;99.90
18998;DHT22;9632;51.018;4.284;2023-09-30T04:57:29;14.50;99.90
18998;DHT22;9632;51.018;4.284;2023-09-30T04:59:55;14.50;99.90
18998;DHT22;9632;51.018;4.284;2023-09-30T05:02:23;14.50;99.90
18998;DHT22;9632;51.018;4.284;2023-09-30T05:04:49;14.50;99.90
18998;DHT22;9632;51.018;4.284;2023-09-30T05:07:15;14.50;99.90
18998;DHT22;9632;51.018;4.284;2023-09-30T05:09:41;14.50;99.90
18998;DHT22;9632;51.018;4.284;2023-09-30T05:12:08;14.40;99.90
18998;DHT22;9632;51.018;4.284;2023-09-30T05:14:34;14.40;99.90
18998;DHT22;9632;51.018;4.284;2023-09-30T05:17:00;14.40;99.90
18998;DHT22;9632;51.018;4.284;2023-09-30T05:19:26;14.40;99.90
18998;DHT22;9632;51.018;4.284;2023-09-30T05:21:52;14.40;99.90
18998;DHT22;9632;51.018;4.284;2023-09-30T05:24:17;14.40;99.90
18998;DHT22;9632;51.018;4.284;2023-09-30T05:26:46;14.40;99.90
18998;DHT22;9632;51.018;4.284;2023-09-30T05:29:12;14.40;99.90
18998;DHT22;9632;51.018;4.284;2023-09-30T05:31:38;14.40;99.90
18998;DHT22;9632;51.018;4.284;2023-09-30T05:34:04;14.40;99.90
18998;DHT22;9632;51.018;4.284;2023-09-30T05:36:30;14.40;99.90
18998;DHT22;9632;51.018;4.284;2023-09-30T05:38:55;14.40;99.90
18998;DHT22;9632;51.018;4.284;2023-09-30T05:41:21;14.40;99.90
18998;DHT22;9632;51.018;4.284;2023-09-30T05:43:47;14.40;99.90
18998;DHT22;9632;51.018;4.284;2023-09-30T05:46:14;14.30;99.90
18998;DHT22;9632;51.018;4.284;2023-09-30T05:48:40;14.40;99.90
18998;DHT22;9632;51.018;4.284;2023-09-30T05:51:06;14.30;99.90
18998;DHT22;9632;51.018;4.284;2023-09-30T05:53:32;14.30;99.90
18998;DHT22;9632;51.018;4.284;2023-09-30T05:56:01;14.30;99.90
18998;DHT22;9632;51.018;4.284;2023-09-30T05:58:27;14.40;99.90
18998;DHT22;9632;51.018;4.284;2023-09-30T06:00:52;14.30;99.90
18998;DHT22;9632;51.018;4.284;2023-09-30T06:03:19;14.30;99.90
18998;DHT22;9632;51.018;4.284;2023-09-30T06:05:46;14.40;99.90
18998;DHT22;9632;51.018;4.284;2023-09-30T06:08:13;14.40;99.90
18998;DHT22;9632;51.018;4.284;2023-09-30T06:10:42;14.40;99.90
18998;DHT22;9632;51.018;4.284;2023-09-30T06:13:09;14.40;99.90
18998;DHT22;9632;51.018;4.284;2023-09-30T06:15:42;14.40;99.90
18998;DHT22;9632;51.018;4.284;2023-09-30T06:18:09;14.40;99.90
18998;DHT22;9632;51.018;4.284;2023-09-30T06:20:35;14.50;99.90
18998;DHT22;9632;51.018;4.284;2023-09-30T06:23:01;14.50;99.90
18998;DHT22;9632;51.018;4.284;2023-09-30T06:25:26;14.50;99.90
18998;DHT22;9632;51.018;4.284;2023-09-30T06:27:53;14.60;99.90
18998;DHT22;9632;51.018;4.284;2023-09-30T06:30:20;14.60;99.90
18998;DHT22;9632;51.018;4.284;2023-09-30T06:32:47;14.60;99.90
18998;DHT22;9632;51.018;4.284;2023-09-30T06:35:13;14.60;99.90
18998;DHT22;9632;51.018;4.284;2023-09-30T06:37:42;14.60;99.90
18998;DHT22;9632;51.018;4.284;2023-09-30T06:40:09;14.70;99.90
18998;DHT22;9632;51.018;4.284;2023-09-30T06:42:37;14.70;99.90
18998;DHT22;9632;51.018;4.284;2023-09-30T06:45:05;14.70;99.90
18998;DHT22;9632;51.018;4.284;2023-09-30T06:47:51;14.70;99.90
18998;DHT22;9632;51.018;4.284;2023-09-30T06:50:18;14.80;99.90
18998;DHT22;9632;51.018;4.284;2023-09-30T06:52:47;14.90;99.90
18998;DHT22;9632;51.018;4.284;2023-09-30T06:55:14;14.90;99.90
18998;DHT22;9632;51.018;4.284;2023-09-30T06:57:41;15.00;99.90
18998;DHT22;9632;51.018;4.284;2023-09-30T07:00:12;15.10;99.90
18998;DHT22;9632;51.018;4.284;2023-09-30T07:02:39;15.20;99.90
18998;DHT22;9632;51.018;4.284;2023-09-30T07:05:09;15.30;99.90
18998;DHT22;9632;51.018;4.284;2023-09-30T07:07:35;15.40;99.90
18998;DHT22;9632;51.018;4.284;2023-09-30T07:10:00;15.50;99.90
18998;DHT22;9632;51.018;4.284;2023-09-30T07:12:26;15.60;99.90
18998;DHT22;9632;51.018;4.284;2023-09-30T07:14:53;15.70;99.90
18998;DHT22;9632;51.018;4.284;2023-09-30T07:17:18;15.80;99.90
18998;DHT22;9632;51.018;4.284;2023-09-30T07:19:44;15.90;99.90
18998;DHT22;9632;51.018;4.284;2023-09-30T07:22:09;16.10;99.90
18998;DHT22;9632;51.018;4.284;2023-09-30T07:24:35;16.10;99.90
18998;DHT22;9632;51.018;4.284;2023-09-30T07:27:01;16.20;99.90
18998;DHT22;9632;51.018;4.284;2023-09-30T07:29:27;16.30;99.90
18998;DHT22;9632;51.018;4.284;2023-09-30T07:31:53;16.40;99.90
18998;DHT22;9632;51.018;4.284;2023-09-30T07:34:19;16.50;99.90
18998;DHT22;9632;51.018;4.284;2023-09-30T07:36:45;16.60;99.90
18998;DHT22;9632;51.018;4.284;2023-09-30T07:39:11;16.70;99.90
18998;DHT22;9632;51.018;4.284;2023-09-30T07:41:37;16.80;99.90
18998;DHT22;9632;51.018;4.284;2023-09-30T07:44:03;16.80;99.90
18998;DHT22;9632;51.018;4.284;2023-09-30T07:46:29;16.90;99.90
18998;DHT22;9632;51.018;4.284;2023-09-30T07:48:56;17.00;99.90
18998;DHT22;9632;51.018;4.284;2023-09-30T07:51:21;17.10;99.90
18998;DHT22;9632;51.018;4.284;2023-09-30T07:53:47;17.20;99.90
18998;DHT22;9632;51.018;4.284;2023-09-30T07:56:13;17.30;99.90
18998;DHT22;9632;51.018;4.284;2023-09-30T07:58:39;17.50;99.90
18998;DHT22;9632;51.018;4.284;2023-09-30T08:01:05;17.60;99.90
18998;DHT22;9632;51.018;4.284;2023-09-30T08:03:30;17.70;99.90
18998;DHT22;9632;51.018;4.284;2023-09-30T08:05:56;17.80;99.90
18998;DHT22;9632;51.018;4.284;2023-09-30T08:08:23;17.80;99.90
18998;DHT22;9632;51.018;4.284;2023-09-30T08:10:49;17.90;99.90
18998;DHT22;9632;51.018;4.284;2023-09-30T08:13:15;17.90;99.90
18998;DHT22;9632;51.018;4.284;2023-09-30T08:15:43;18.00;99.90
18998;DHT22;9632;51.018;4.284;2023-09-30T08:18:08;18.10;99.90
18998;DHT22;9632;51.018;4.284;2023-09-30T08:20:34;18.20;99.90
18998;DHT22;9632;51.018;4.284;2023-09-30T08:22:59;18.30;99.90
18998;DHT22;9632;51.018;4.284;2023-09-30T08:25:25;18.30;99.90
18998;DHT22;9632;51.018;4.284;2023-09-30T08:27:51;18.30;99.90
18998;DHT22;9632;51.018;4.284;2023-09-30T08:30:17;18.40;99.90
18998;DHT22;9632;51.018;4.284;2023-09-30T08:32:43;18.50;99.90
18998;DHT22;9632;51.018;4.284;2023-09-30T08:35:12;18.60;99.90
18998;DHT22;9632;51.018;4.284;2023-09-30T08:37:40;18.70;99.90
18998;DHT22;9632;51.018;4.284;2023-09-30T08:40:06;18.70;99.90
18998;DHT22;9632;51.018;4.284;2023-09-30T08:42:35;18.80;99.90
18998;DHT22;9632;51.018;4.284;2023-09-30T08:45:01;18.70;99.90
18998;DHT22;9632;51.018;4.284;2023-09-30T08:47:28;18.80;99.90
18998;DHT22;9632;51.018;4.284;2023-09-30T08:49:59;18.90;99.90
18998;DHT22;9632;51.018;4.284;2023-09-30T08:52:35;18.90;99.90
18998;DHT22;9632;51.018;4.284;2023-09-30T08:55:01;19.00;99.90
18998;DHT22;9632;51.018;4.284;2023-09-30T08:57:27;19.10;99.90
18998;DHT22;9632;51.018;4.284;2023-09-30T08:59:53;19.20;99.90
18998;DHT22;9632;51.018;4.284;2023-09-30T09:02:19;19.30;99.90
18998;DHT22;9632;51.018;4.284;2023-09-30T09:04:45;19.30;99.90
18998;DHT22;9632;51.018;4.284;2023-09-30T09:07:15;19.40;99.90
18998;DHT22;9632;51.018;4.284;2023-09-30T09:09:40;19.30;99.90
18998;DHT22;9632;51.018;4.284;2023-09-30T09:12:06;19.40;99.90
18998;DHT22;9632;51.018;4.284;2023-09-30T09:14:44;19.40;99.90
18998;DHT22;9632;51.018;4.284;2023-09-30T09:17:11;19.40;99.90
18998;DHT22;9632;51.018;4.284;2023-09-30T09:19:37;19.50;99.90
18998;DHT22;9632;51.018;4.284;2023-09-30T09:22:03;19.50;99.90
18998;DHT22;9632;51.018;4.284;2023-09-30T09:24:37;19.60;99.90
18998;DHT22;9632;51.018;4.284;2023-09-30T09:27:12;19.70;99.90
18998;DHT22;9632;51.018;4.284;2023-09-30T09:29:39;19.70;99.90
18998;DHT22;9632;51.018;4.284;2023-09-30T09:32:17;19.80;99.90
18998;DHT22;9632;51.018;4.284;2023-09-30T09:34:44;19.90;99.90
18998;DHT22;9632;51.018;4.284;2023-09-30T09:37:18;20.00;99.90
18998;DHT22;9632;51.018;4.284;2023-09-30T09:39:56;20.10;99.90
18998;DHT22;9632;51.018;4.284;2023-09-30T09:42:30;20.10;99.90
18998;DHT22;9632;51.018;4.284;2023-09-30T09:45:02;20.30;99.90
18998;DHT22;9632;51.018;4.284;2023-09-30T09:47:29;20.40;99.90
18998;DHT22;9632;51.018;4.284;2023-09-30T09:49:57;20.50;99.90
18998;DHT22;9632;51.018;4.284;2023-09-30T09:52:23;20.60;99.90
18998;DHT22;9632;51.018;4.284;2023-09-30T09:54:50;20.60;99.90
18998;DHT22;9632;51.018;4.284;2023-09-30T09:57:17;20.60;99.90
18998;DHT22;9632;51.018;4.284;2023-09-30T09:59:44;20.50;99.90
18998;DHT22;9632;51.018;4.284;2023-09-30T10:02:14;20.50;99.90
18998;DHT22;9632;51.018;4.284;2023-09-30T10:04:47;20.60;99.90
18998;DHT22;9632;51.018;4.284;2023-09-30T10:07:27;20.60;99.90
18998;DHT22;9632;51.018;4.284;2023-09-30T10:09:56;20.70;99.90
18998;DHT22;9632;51.018;4.284;2023-09-30T10:12:25;20.80;99.90
18998;DHT22;9632;51.018;4.284;2023-09-30T10:14:52;20.80;99.90
18998;DHT22;9632;51.018;4.284;2023-09-30T10:17:17;20.80;99.90
18998;DHT22;9632;51.018;4.284;2023-09-30T10:20:05;20.80;99.90
18998;DHT22;9632;51.018;4.284;2023-09-30T10:22:35;20.90;99.90
18998;DHT22;9632;51.018;4.284;2023-09-30T10:25:01;20.90;99.90
18998;DHT22;9632;51.018;4.284;2023-09-30T10:27:31;21.00;99.90
18998;DHT22;9632;51.018;4.284;2023-09-30T10:40:51;21.10;99.90
18998;DHT22;9632;51.018;4.284;2023-09-30T10:45:56;21.10;99.90
18998;DHT22;9632;51.018;4.284;2023-09-30T10:50:55;20.90;99.90
18998;DHT22;9632;51.018;4.284;2023-09-30T10:53:22;20.90;99.90
18998;DHT22;9632;51.018;4.284;2023-09-30T10:55:55;21.00;99.90
18998;DHT22;9632;51.018;4.284;2023-09-30T10:58:21;21.10;99.90
18998;DHT22;9632;51.018;4.284;2023-09-30T11:00:53;21.10;99.90
18998;DHT22;9632;51.018;4.284;2023-09-30T11:03:22;21.20;99.90
18998;DHT22;9632;51.018;4.284;2023-09-30T11:05:49;21.30;99.90
18998;DHT22;9632;51.018;4.284;2023-09-30T11:08:17;21.40;99.90
18998;DHT22;9632;51.018;4.284;2023-09-30T11:10:51;21.40;99.90
18998;DHT22;9632;51.018;4.284;2023-09-30T11:13:19;21.30;99.90
18998;DHT22;9632;51.018;4.284;2023-09-30T11:15:45;21.30;99.90
18998;DHT22;9632;51.018;4.284;2023-09-30T11:20:40;21.40;99.90
18998;DHT22;9632;51.018;4.284;2023-09-30T11:23:06;21.40;99.90
18998;DHT22;9632;51.018;4.284;2023-09-30T11:25:36;21.40;99.90
18998;DHT22;9632;51.018;4.284;2023-09-30T11:28:15;21.50;99.90
18998;DHT22;9632;51.018;4.284;2023-09-30T11:31:00;21.50;99.90
18998;DHT22;9632;51.018;4.284;2023-09-30T11:33:29;21.60;99.90
18998;DHT22;9632;51.018;4.284;2023-09-30T11:36:01;21.70;99.90
18998;DHT22;9632;51.018;4.284;2023-09-30T11:38:28;21.70;99.90
18998;DHT22;9632;51.018;4.284;2023-09-30T11:41:00;21.70;99.90
18998;DHT22;9632;51.018;4.284;2023-09-30T11:43:28;21.60;99.90
18998;DHT22;9632;51.018;4.284;2023-09-30T11:46:04;21.60;99.90
18998;DHT22;9632;51.018;4.284;2023-09-30T11:48:31;21.50;99.90
18998;DHT22;9632;51.018;4.284;2023-09-30T11:50:59;21.50;99.90
18998;DHT22;9632;51.018;4.284;2023-09-30T11:53:31;21.60;99.90
18998;DHT22;9632;51.018;4.284;2023-09-30T11:55:58;21.60;99.90
18998;DHT22;9632;51.018;4.284;2023-09-30T11:58:26;21.60;99.90
18998;DHT22;9632;51.018;4.284;2023-09-30T12:00:56;21.60;99.90
18998;DHT22;9632;51.018;4.284;2023-09-30T12:03:23;21.60;99.90
18998;DHT22;9632;51.018;4.284;2023-09-30T12:05:48;21.60;99.90
18998;DHT22;9632;51.018;4.284;2023-09-30T12:08:14;21.50;99.90
18998;DHT22;9632;51.018;4.284;2023-09-30T12:10:43;21.50;99.90
18998;DHT22;9632;51.018;4.284;2023-09-30T12:13:09;21.50;99.90
18998;DHT22;9632;51.018;4.284;2023-09-30T12:15:37;21.50;99.90
18998;DHT22;9632;51.018;4.284;2023-09-30T12:18:03;21.50;99.90
18998;DHT22;9632;51.018;4.284;2023-09-30T12:20:28;21.50;99.90
18998;DHT22;9632;51.018;4.284;2023-09-30T12:22:54;21.60;99.90
18998;DHT22;9632;51.018;4.284;2023-09-30T12:25:19;21.70;99.90
18998;DHT22;9632;51.018;4.284;2023-09-30T12:27:48;21.70;99.90
18998;DHT22;9632;51.018;4.284;2023-09-30T12:30:14;21.70;99.90
18998;DHT22;9632;51.018;4.284;2023-09-30T12:32:40;21.80;99.90
18998;DHT22;9632;51.018;4.284;2023-09-30T12:35:06;21.80;99.90
18998;DHT22;9632;51.018;4.284;2023-09-30T12:37:32;21.80;99.90
18998;DHT22;9632;51.018;4.284;2023-09-30T12:39:58;21.80;99.90
18998;DHT22;9632;51.018;4.284;2023-09-30T12:42:24;21.80;99.90
18998;DHT22;9632;51.018;4.284;2023-09-30T12:44:50;21.80;99.90
18998;DHT22;9632;51.018;4.284;2023-09-30T12:47:15;21.80;99.90
18998;DHT22;9632;51.018;4.284;2023-09-30T12:49:41;21.90;99.90
18998;DHT22;9632;51.018;4.284;2023-09-30T12:52:07;21.90;99.90
18998;DHT22;9632;51.018;4.284;2023-09-30T12:54:33;21.90;99.90
18998;DHT22;9632;51.018;4.284;2023-09-30T12:56:59;21.90;99.90
18998;DHT22;9632;51.018;4.284;2023-09-30T12:59:25;21.90;99.90
18998;DHT22;9632;51.018;4.284;2023-09-30T13:01:51;21.90;99.90
18998;DHT22;9632;51.018;4.284;2023-09-30T13:04:17;21.90;99.90
18998;DHT22;9632;51.018;4.284;2023-09-30T13:06:44;22.00;99.90
18998;DHT22;9632;51.018;4.284;2023-09-30T13:09:10;22.10;99.90
18998;DHT22;9632;51.018;4.284;2023-09-30T13:11:37;22.10;99.90
18998;DHT22;9632;51.018;4.284;2023-09-30T13:14:03;22.10;99.90
18998;DHT22;9632;51.018;4.284;2023-09-30T13:16:29;22.00;99.90
18998;DHT22;9632;51.018;4.284;2023-09-30T13:18:54;22.10;99.90
18998;DHT22;9632;51.018;4.284;2023-09-30T13:21:20;22.20;99.90
18998;DHT22;9632;51.018;4.284;2023-09-30T13:23:46;22.10;99.90
18998;DHT22;9632;51.018;4.284;2023-09-30T13:26:11;22.10;99.90
18998;DHT22;9632;51.018;4.284;2023-09-30T13:28:37;22.10;99.90
18998;DHT22;9632;51.018;4.284;2023-09-30T13:31:03;22.20;99.90
18998;DHT22;9632;51.018;4.284;2023-09-30T13:33:29;22.20;99.90
18998;DHT22;9632;51.018;4.284;2023-09-30T13:35:58;22.20;99.90
18998;DHT22;9632;51.018;4.284;2023-09-30T13:38:23;22.30;99.90
18998;DHT22;9632;51.018;4.284;2023-09-30T13:40:49;22.30;99.90
18998;DHT22;9632;51.018;4.284;2023-09-30T13:43:15;22.30;99.90
18998;DHT22;9632;51.018;4.284;2023-09-30T13:45:40;22.20;99.90
18998;DHT22;9632;51.018;4.284;2023-09-30T13:48:06;22.10;99.90
18998;DHT22;9632;51.018;4.284;2023-09-30T13:50:32;22.10;99.90
18998;DHT22;9632;51.018;4.284;2023-09-30T13:52:57;22.10;99.90
18998;DHT22;9632;51.018;4.284;2023-09-30T13:55:26;22.10;99.90
18998;DHT22;9632;51.018;4.284;2023-09-30T13:57:51;22.10;99.90
18998;DHT22;9632;51.018;4.284;2023-09-30T14:00:17;22.10;99.90
18998;DHT22;9632;51.018;4.284;2023-09-30T14:02:43;22.20;99.90
18998;DHT22;9632;51.018;4.284;2023-09-30T14:05:09;22.10;99.90
18998;DHT22;9632;51.018;4.284;2023-09-30T14:07:37;22.10;99.90
18998;DHT22;9632;51.018;4.284;2023-09-30T14:10:06;22.10;99.90
18998;DHT22;9632;51.018;4.284;2023-09-30T14:12:31;22.10;99.90
18998;DHT22;9632;51.018;4.284;2023-09-30T14:14:57;22.00;99.90
18998;DHT22;9632;51.018;4.284;2023-09-30T14:17:23;22.10;99.90
18998;DHT22;9632;51.018;4.284;2023-09-30T14:19:48;22.10;99.90
18998;DHT22;9632;51.018;4.284;2023-09-30T14:22:15;22.10;99.90
18998;DHT22;9632;51.018;4.284;2023-09-30T14:24:40;22.10;99.90
18998;DHT22;9632;51.018;4.284;2023-09-30T14:27:06;22.10;99.90
18998;DHT22;9632;51.018;4.284;2023-09-30T14:29:32;22.10;99.90
18998;DHT22;9632;51.018;4.284;2023-09-30T14:31:58;22.10;99.90
18998;DHT22;9632;51.018;4.284;2023-09-30T14:34:25;22.10;99.90
18998;DHT22;9632;51.018;4.284;2023-09-30T14:36:51;22.10;99.90
18998;DHT22;9632;51.018;4.284;2023-09-30T14:39:18;22.00;99.90
18998;DHT22;9632;51.018;4.284;2023-09-30T14:41:44;22.00;99.90
18998;DHT22;9632;51.018;4.284;2023-09-30T14:44:10;22.00;99.90
18998;DHT22;9632;51.018;4.284;2023-09-30T14:46:37;22.00;99.90
18998;DHT22;9632;51.018;4.284;2023-09-30T14:49:04;22.00;99.90
18998;DHT22;9632;51.018;4.284;2023-09-30T14:51:31;21.90;99.90
18998;DHT22;9632;51.018;4.284;2023-09-30T14:53:57;21.90;99.90
18998;DHT22;9632;51.018;4.284;2023-09-30T14:56:23;21.90;99.90
18998;DHT22;9632;51.018;4.284;2023-09-30T14:58:48;21.90;99.90
18998;DHT22;9632;51.018;4.284;2023-09-30T15:01:14;21.80;99.90
18998;DHT22;9632;51.018;4.284;2023-09-30T15:03:40;21.80;99.90
18998;DHT22;9632;51.018;4.284;2023-09-30T15:06:06;21.80;99.90
18998;DHT22;9632;51.018;4.284;2023-09-30T15:08:32;21.80;99.90
18998;DHT22;9632;51.018;4.284;2023-09-30T15:10:59;21.80;99.90
18998;DHT22;9632;51.018;4.284;2023-09-30T15:13:25;21.80;99.90
18998;DHT22;9632;51.018;4.284;2023-09-30T15:15:51;21.80;99.90
18998;DHT22;9632;51.018;4.284;2023-09-30T15:18:17;21.80;99.90
18998;DHT22;9632;51.018;4.284;2023-09-30T15:20:43;21.80;99.90
18998;DHT22;9632;51.018;4.284;2023-09-30T15:23:10;21.70;99.90
18998;DHT22;9632;51.018;4.284;2023-09-30T15:25:45;21.70;99.90
18998;DHT22;9632;51.018;4.284;2023-09-30T15:28:12;21.70;99.90
18998;DHT22;9632;51.018;4.284;2023-09-30T15:30:38;21.70;99.90
18998;DHT22;9632;51.018;4.284;2023-09-30T15:33:04;21.60;99.90
18998;DHT22;9632;51.018;4.284;2023-09-30T15:35:30;21.60;99.90
18998;DHT22;9632;51.018;4.284;2023-09-30T15:37:56;21.50;99.90
18998;DHT22;9632;51.018;4.284;2023-09-30T15:40:22;21.50;99.90
18998;DHT22;9632;51.018;4.284;2023-09-30T15:42:48;21.50;99.90
18998;DHT22;9632;51.018;4.284;2023-09-30T15:45:14;21.50;99.90
18998;DHT22;9632;51.018;4.284;2023-09-30T15:47:39;21.50;99.90
18998;DHT22;9632;51.018;4.284;2023-09-30T15:50:05;21.40;99.90
18998;DHT22;9632;51.018;4.284;2023-09-30T15:52:32;21.40;99.90
18998;DHT22;9632;51.018;4.284;2023-09-30T15:54:58;21.40;99.90
18998;DHT22;9632;51.018;4.284;2023-09-30T15:57:23;21.40;99.90
18998;DHT22;9632;51.018;4.284;2023-09-30T15:59:49;21.40;99.90
18998;DHT22;9632;51.018;4.284;2023-09-30T16:02:15;21.40;99.90